EDT,Max TemperatureF,Mean TemperatureF,Min TemperatureF,Max Dew PointF,MeanDew PointF,Min DewpointF,Max Humidity, Mean Humidity, Min Humidity, Max Sea Level PressureIn, Mean Sea Level PressureIn, Min Sea Level PressureIn, Max VisibilityMiles, Mean VisibilityMiles, Min VisibilityMiles, Max Wind SpeedMPH, Mean Wind SpeedMPH, Max Gust SpeedMPH,PrecipitationIn, CloudCover, Events, WindDirDegrees
2012-8-1,78,68,58,60,57,52,94,74,42,29.93,29.88,29.80,10,10,10,14,7,17,0.00,3,,152
2012-8-2,83,73,62,66,64,57,97,79,54,29.85,29.80,29.75,10,10,9,15,8,20,T,3,Rain,154
2012-8-3,84,72,59,67,63,54,100,79,56,30.07,29.87,29.78,10,9,4,18,8,24,0.02,3,Rain-Thunderstorm,214
2012-8-4,81,67,52,54,50,46,97,57,30,30.23,30.19,30.09,10,10,10,12,5,14,0.00,0,,344
2012-8-5,89,76,62,68,62,53,87,65,34,30.18,29.94,29.72,10,10,10,28,15,40,0.00,1,,163
2012-8-6,75,66,56,70,63,53,100,82,49,29.92,29.78,29.69,10,8,1,18,10,24,0.46,6,Rain,251
2012-8-7,82,68,53,56,53,52,93,64,36,29.96,29.91,29.86,10,10,10,14,4,21,0.00,1,,250
2012-8-8,77,69,60,63,58,54,96,73,50,29.96,29.94,29.89,10,10,4,10,4,21,0.06,4,Rain,293
2012-8-9,79,68,57,59,57,55,96,70,48,29.99,29.97,29.94,10,10,8,12,5,16,0.00,1,,343
2012-8-10,63,61,58,59,57,51,100,91,67,30.06,30.02,29.98,10,7,2,12,6,23,1.04,8,Rain,48
2012-8-11,75,68,60,65,62,59,100,91,62,30.02,30.00,29.97,10,6,0,15,8,18,0.04,8,Fog-Rain,93
2012-8-12,70,66,62,68,65,61,100,97,88,30.00,29.92,29.86,10,4,0,10,6,14,0.05,8,Fog-Rain,119
2012-8-13,81,73,64,68,64,60,100,85,52,29.89,29.85,29.81,10,6,0,14,6,17,T,5,Fog,246
2012-8-14,80,70,59,64,61,59,100,78,52,29.88,29.86,29.82,10,9,0,12,4,15,0.00,2,Fog,277
2012-8-15,77,68,59,66,62,58,100,95,60,29.92,29.89,29.86,10,4,0,14,3,23,0.20,4,Fog-Rain-Thunderstorm,73
2012-8-16,70,66,62,65,63,61,100,95,78,29.90,29.87,29.81,10,5,0,8,4,14,0.26,8,Fog-Rain-Thunderstorm,81
2012-8-17,78,69,59,63,61,58,100,85,50,29.80,29.76,29.69,10,7,0,10,4,15,0.22,5,Fog-Rain,313
2012-8-18,76,66,55,64,59,49,100,85,41,29.89,29.78,29.72,10,6,0,16,7,24,0.01,4,Fog-Rain,264
2012-8-19,75,62,49,54,50,48,100,71,42,29.96,29.91,29.88,10,9,1,8,2,24,0.00,0,,329
2012-8-20,77,66,54,56,51,46,89,63,36,29.90,29.86,29.81,10,10,10,12,4,17,0.00,1,,241
2012-8-21,73,62,51,56,51,46,96,72,43,30.04,29.92,29.84,10,10,10,21,7,25,0.01,4,Rain,277
2012-8-22,75,63,50,54,52,50,96,70,41,30.09,30.05,30.02,10,10,10,15,5,24,0.00,4,,212
2012-8-23,75,66,56,60,55,51,89,75,53,30.05,30.00,29.96,10,10,4,15,8,21,0.03,2,Rain-Thunderstorm,243
2012-8-24,75,63,50,53,50,46,93,66,40,30.25,30.17,30.06,10,10,10,14,6,20,0.00,0,,322
2012-8-25,78,64,50,60,54,48,93,70,45,30.33,30.27,30.22,10,10,10,13,4,23,0.00,2,,161
2012-8-26,87,74,61,64,59,53,97,65,35,30.23,30.17,30.11,10,10,8,17,8,24,0.00,0,,229
2012-8-27,85,74,63,66,64,59,100,82,43,30.10,29.91,29.78,10,7,1,16,6,24,0.90,5,Rain-Thunderstorm,210
2012-8-28,69,60,51,64,59,42,100,88,55,29.79,29.71,29.66,10,6,0,25,11,35,0.14,7,Fog-Rain,262
2012-8-29,66,58,49,54,46,40,90,71,56,29.75,29.73,29.70,10,10,10,26,9,32,T,3,,285
2012-8-30,70,63,56,58,55,50,87,73,59,29.75,29.72,29.63,10,10,10,17,8,23,0.01,5,Rain,246
2012-8-31,78,66,53,63,59,43,94,73,53,29.83,29.64,29.56,10,10,5,18,13,24,0.20,4,Rain-Thunderstorm,262